sensor_id;sensor_type;location;lat;lon;timestamp;temperature;humidity
21678;DHT22;11000;50.360;7.582;2023-09-18T00:00:31;20.60;99.90
21678;DHT22;11000;50.360;7.582;2023-09-18T00:02:53;20.50;99.90
21678;DHT22;11000;50.360;7.582;2023-09-18T00:05:13;20.50;99.90
21678;DHT22;11000;50.360;7.582;2023-09-18T00:07:36;20.50;99.90
21678;DHT22;11000;50.360;7.582;2023-09-18T00:09:57;20.50;99.90
21678;DHT22;11000;50.360;7.582;2023-09-18T00:12:17;20.50;99.90
21678;DHT22;11000;50.360;7.582;2023-09-18T00:14:38;20.50;99.90
21678;DHT22;11000;50.360;7.582;2023-09-18T00:16:58;20.50;99.90
21678;DHT22;11000;50.360;7.582;2023-09-18T00:19:19;20.50;99.90
21678;DHT22;11000;50.360;7.582;2023-09-18T00:21:39;20.40;99.90
21678;DHT22;11000;50.360;7.582;2023-09-18T00:24:00;20.50;99.90
21678;DHT22;11000;50.360;7.582;2023-09-18T00:26:20;20.40;99.90
21678;DHT22;11000;50.360;7.582;2023-09-18T00:28:41;20.40;99.90
21678;DHT22;11000;50.360;7.582;2023-09-18T00:31:02;20.40;99.90
21678;DHT22;11000;50.360;7.582;2023-09-18T00:33:22;20.30;99.90
21678;DHT22;11000;50.360;7.582;2023-09-18T00:35:51;20.30;99.90
21678;DHT22;11000;50.360;7.582;2023-09-18T00:38:11;20.30;99.90
21678;DHT22;11000;50.360;7.582;2023-09-18T00:40:32;20.30;99.90
21678;DHT22;11000;50.360;7.582;2023-09-18T00:42:52;20.30;99.90
21678;DHT22;11000;50.360;7.582;2023-09-18T00:45:13;20.20;99.90
21678;DHT22;11000;50.360;7.582;2023-09-18T00:47:33;20.20;99.90
21678;DHT22;11000;50.360;7.582;2023-09-18T00:49:55;20.20;99.90
21678;DHT22;11000;50.360;7.582;2023-09-18T00:52:16;20.10;99.90
21678;DHT22;11000;50.360;7.582;2023-09-18T00:54:38;20.10;99.90
21678;DHT22;11000;50.360;7.582;2023-09-18T00:57:00;20.00;99.90
21678;DHT22;11000;50.360;7.582;2023-09-18T00:59:21;20.00;99.90
21678;DHT22;11000;50.360;7.582;2023-09-18T01:01:42;19.90;99.90
21678;DHT22;11000;50.360;7.582;2023-09-18T01:04:03;19.90;99.90
21678;DHT22;11000;50.360;7.582;2023-09-18T01:06:27;19.90;99.90
21678;DHT22;11000;50.360;7.582;2023-09-18T01:08:50;19.90;99.90
21678;DHT22;11000;50.360;7.582;2023-09-18T01:11:24;19.90;99.90
21678;DHT22;11000;50.360;7.582;2023-09-18T01:13:54;19.90;99.90
21678;DHT22;11000;50.360;7.582;2023-09-18T01:16:24;19.80;99.90
21678;DHT22;11000;50.360;7.582;2023-09-18T01:18:51;19.80;99.90
21678;DHT22;11000;50.360;7.582;2023-09-18T01:21:11;19.80;99.90
21678;DHT22;11000;50.360;7.582;2023-09-18T01:23:32;19.80;99.90
21678;DHT22;11000;50.360;7.582;2023-09-18T01:25:52;19.90;99.90
21678;DHT22;11000;50.360;7.582;2023-09-18T01:28:13;19.90;99.90
21678;DHT22;11000;50.360;7.582;2023-09-18T01:30:33;19.90;99.90
21678;DHT22;11000;50.360;7.582;2023-09-18T01:32:57;20.00;99.90
21678;DHT22;11000;50.360;7.582;2023-09-18T01:35:18;20.00;99.90
21678;DHT22;11000;50.360;7.582;2023-09-18T01:37:40;20.10;99.90
21678;DHT22;11000;50.360;7.582;2023-09-18T01:40:03;20.20;99.90
21678;DHT22;11000;50.360;7.582;2023-09-18T01:42:27;20.20;99.90
21678;DHT22;11000;50.360;7.582;2023-09-18T01:44:48;20.50;99.90
21678;DHT22;11000;50.360;7.582;2023-09-18T01:47:12;20.60;99.90
21678;DHT22;11000;50.360;7.582;2023-09-18T01:49:35;21.20;99.90
21678;DHT22;11000;50.360;7.582;2023-09-18T01:51:56;21.40;99.90
21678;DHT22;11000;50.360;7.582;2023-09-18T01:54:17;21.40;99.90
21678;DHT22;11000;50.360;7.582;2023-09-18T01:56:37;21.30;99.90
21678;DHT22;11000;50.360;7.582;2023-09-18T01:58:58;21.20;99.90
21678;DHT22;11000;50.360;7.582;2023-09-18T02:01:18;21.10;99.90
21678;DHT22;11000;50.360;7.582;2023-09-18T02:03:39;21.10;99.90
21678;DHT22;11000;50.360;7.582;2023-09-18T02:06:02;21.00;99.90
21678;DHT22;11000;50.360;7.582;2023-09-18T02:08:22;20.90;99.90
21678;DHT22;11000;50.360;7.582;2023-09-18T02:10:43;20.80;99.90
21678;DHT22;11000;50.360;7.582;2023-09-18T02:13:03;20.70;99.90
21678;DHT22;11000;50.360;7.582;2023-09-18T02:15:24;20.60;99.90
21678;DHT22;11000;50.360;7.582;2023-09-18T02:17:44;20.50;99.90
21678;DHT22;11000;50.360;7.582;2023-09-18T02:20:06;20.60;99.90
21678;DHT22;11000;50.360;7.582;2023-09-18T02:22:32;20.40;99.90
21678;DHT22;11000;50.360;7.582;2023-09-18T02:24:53;20.40;99.90
21678;DHT22;11000;50.360;7.582;2023-09-18T02:27:13;20.30;99.90
21678;DHT22;11000;50.360;7.582;2023-09-18T02:29:34;20.30;99.90
21678;DHT22;11000;50.360;7.582;2023-09-18T02:31:54;20.40;99.90
21678;DHT22;11000;50.360;7.582;2023-09-18T02:34:15;20.40;99.90
21678;DHT22;11000;50.360;7.582;2023-09-18T02:36:35;20.30;99.90
21678;DHT22;11000;50.360;7.582;2023-09-18T02:38:56;20.30;99.90
21678;DHT22;11000;50.360;7.582;2023-09-18T02:41:16;20.20;99.90
21678;DHT22;11000;50.360;7.582;2023-09-18T02:43:37;20.20;99.90
21678;DHT22;11000;50.360;7.582;2023-09-18T02:45:58;20.10;99.90
21678;DHT22;11000;50.360;7.582;2023-09-18T02:48:19;20.10;99.90
21678;DHT22;11000;50.360;7.582;2023-09-18T02:50:39;20.00;99.90
21678;DHT22;11000;50.360;7.582;2023-09-18T02:53:00;20.00;99.90
21678;DHT22;11000;50.360;7.582;2023-09-18T02:55:20;20.00;99.90
21678;DHT22;11000;50.360;7.582;2023-09-18T02:57:41;20.10;99.90
21678;DHT22;11000;50.360;7.582;2023-09-18T03:00:02;20.10;99.90
21678;DHT22;11000;50.360;7.582;2023-09-18T03:02:23;20.00;99.90
21678;DHT22;11000;50.360;7.582;2023-09-18T03:04:44;20.00;99.90
21678;DHT22;11000;50.360;7.582;2023-09-18T03:07:04;20.00;99.90
21678;DHT22;11000;50.360;7.582;2023-09-18T03:09:25;19.90;99.90
21678;DHT22;11000;50.360;7.582;2023-09-18T03:11:46;19.90;99.90
21678;DHT22;11000;50.360;7.582;2023-09-18T03:14:06;19.90;99.90
21678;DHT22;11000;50.360;7.582;2023-09-18T03:16:27;19.90;99.90
21678;DHT22;11000;50.360;7.582;2023-09-18T03:18:47;19.80;99.90
21678;DHT22;11000;50.360;7.582;2023-09-18T03:21:08;19.80;99.90
21678;DHT22;11000;50.360;7.582;2023-09-18T03:23:29;19.80;99.90
21678;DHT22;11000;50.360;7.582;2023-09-18T03:25:50;19.90;99.90
21678;DHT22;11000;50.360;7.582;2023-09-18T03:28:10;19.90;99.90
21678;DHT22;11000;50.360;7.582;2023-09-18T03:30:31;19.90;99.90
21678;DHT22;11000;50.360;7.582;2023-09-18T03:32:52;19.90;99.90
21678;DHT22;11000;50.360;7.582;2023-09-18T03:35:13;19.80;99.90
21678;DHT22;11000;50.360;7.582;2023-09-18T03:37:43;19.80;99.90
21678;DHT22;11000;50.360;7.582;2023-09-18T03:40:04;19.80;99.90
21678;DHT22;11000;50.360;7.582;2023-09-18T03:42:26;19.80;99.90
21678;DHT22;11000;50.360;7.582;2023-09-18T03:44:46;19.80;99.90
21678;DHT22;11000;50.360;7.582;2023-09-18T03:47:07;19.80;99.90
21678;DHT22;11000;50.360;7.582;2023-09-18T03:49:28;19.70;99.90
21678;DHT22;11000;50.360;7.582;2023-09-18T03:51:48;19.70;99.90
21678;DHT22;11000;50.360;7.582;2023-09-18T03:54:09;19.70;99.90
21678;DHT22;11000;50.360;7.582;2023-09-18T03:56:29;19.60;99.90
21678;DHT22;11000;50.360;7.582;2023-09-18T03:58:50;19.70;99.90
21678;DHT22;11000;50.360;7.582;2023-09-18T04:01:11;19.70;99.90
21678;DHT22;11000;50.360;7.582;2023-09-18T04:03:32;19.70;99.90
21678;DHT22;11000;50.360;7.582;2023-09-18T04:05:52;19.70;99.90
21678;DHT22;11000;50.360;7.582;2023-09-18T04:08:13;19.70;99.90
21678;DHT22;11000;50.360;7.582;2023-09-18T04:10:33;19.70;99.90
21678;DHT22;11000;50.360;7.582;2023-09-18T04:12:55;19.70;99.90
21678;DHT22;11000;50.360;7.582;2023-09-18T04:15:15;19.70;99.90
21678;DHT22;11000;50.360;7.582;2023-09-18T04:17:37;19.70;99.90
21678;DHT22;11000;50.360;7.582;2023-09-18T04:19:58;19.70;99.90
21678;DHT22;11000;50.360;7.582;2023-09-18T04:22:18;19.60;99.90
21678;DHT22;11000;50.360;7.582;2023-09-18T04:24:39;19.50;99.90
21678;DHT22;11000;50.360;7.582;2023-09-18T04:26:59;19.50;99.90
21678;DHT22;11000;50.360;7.582;2023-09-18T04:29:20;19.50;99.90
21678;DHT22;11000;50.360;7.582;2023-09-18T04:31:40;19.50;99.90
21678;DHT22;11000;50.360;7.582;2023-09-18T04:34:01;19.50;99.90
21678;DHT22;11000;50.360;7.582;2023-09-18T04:36:23;19.50;99.90
21678;DHT22;11000;50.360;7.582;2023-09-18T04:38:45;19.50;99.90
21678;DHT22;11000;50.360;7.582;2023-09-18T04:41:05;19.50;99.90
21678;DHT22;11000;50.360;7.582;2023-09-18T04:43:27;19.50;99.90
21678;DHT22;11000;50.360;7.582;2023-09-18T04:45:50;19.50;99.90
21678;DHT22;11000;50.360;7.582;2023-09-18T04:48:10;19.60;99.90
21678;DHT22;11000;50.360;7.582;2023-09-18T04:50:31;19.60;99.90
21678;DHT22;11000;50.360;7.582;2023-09-18T04:52:54;19.70;99.90
21678;DHT22;11000;50.360;7.582;2023-09-18T04:55:16;19.70;99.90
21678;DHT22;11000;50.360;7.582;2023-09-18T04:57:37;19.80;99.90
21678;DHT22;11000;50.360;7.582;2023-09-18T04:59:58;19.70;99.90
21678;DHT22;11000;50.360;7.582;2023-09-18T05:02:18;19.80;99.90
21678;DHT22;11000;50.360;7.582;2023-09-18T05:04:39;19.70;99.90
21678;DHT22;11000;50.360;7.582;2023-09-18T05:06:59;19.70;99.90
21678;DHT22;11000;50.360;7.582;2023-09-18T05:09:22;19.80;99.90
21678;DHT22;11000;50.360;7.582;2023-09-18T05:11:42;19.70;99.90
21678;DHT22;11000;50.360;7.582;2023-09-18T05:14:03;19.80;99.90
21678;DHT22;11000;50.360;7.582;2023-09-18T05:16:24;19.80;99.90
21678;DHT22;11000;50.360;7.582;2023-09-18T05:18:44;19.80;99.90
21678;DHT22;11000;50.360;7.582;2023-09-18T05:21:05;19.80;99.90
21678;DHT22;11000;50.360;7.582;2023-09-18T05:23:25;19.90;99.90
21678;DHT22;11000;50.360;7.582;2023-09-18T05:25:46;19.80;99.90
21678;DHT22;11000;50.360;7.582;2023-09-18T05:28:07;19.80;99.90
21678;DHT22;11000;50.360;7.582;2023-09-18T05:30:30;19.80;99.90
21678;DHT22;11000;50.360;7.582;2023-09-18T05:32:53;19.80;99.90
21678;DHT22;11000;50.360;7.582;2023-09-18T05:35:14;19.80;99.90
21678;DHT22;11000;50.360;7.582;2023-09-18T05:37:35;19.80;99.90
21678;DHT22;11000;50.360;7.582;2023-09-18T05:39:55;19.80;99.90
21678;DHT22;11000;50.360;7.582;2023-09-18T05:42:16;19.70;99.90
21678;DHT22;11000;50.360;7.582;2023-09-18T05:44:36;19.70;99.90
21678;DHT22;11000;50.360;7.582;2023-09-18T05:46:59;19.70;99.90
21678;DHT22;11000;50.360;7.582;2023-09-18T05:49:20;19.80;99.90
21678;DHT22;11000;50.360;7.582;2023-09-18T05:51:40;19.70;99.90
21678;DHT22;11000;50.360;7.582;2023-09-18T05:54:01;19.70;99.90
21678;DHT22;11000;50.360;7.582;2023-09-18T05:56:22;19.70;99.90
21678;DHT22;11000;50.360;7.582;2023-09-18T05:58:44;19.80;99.90
21678;DHT22;11000;50.360;7.582;2023-09-18T06:01:04;19.80;99.90
21678;DHT22;11000;50.360;7.582;2023-09-18T06:03:25;19.90;99.90
21678;DHT22;11000;50.360;7.582;2023-09-18T06:05:46;19.90;99.90
21678;DHT22;11000;50.360;7.582;2023-09-18T06:08:07;19.90;99.90
21678;DHT22;11000;50.360;7.582;2023-09-18T06:10:27;19.90;99.90
21678;DHT22;11000;50.360;7.582;2023-09-18T06:12:48;19.90;99.90
21678;DHT22;11000;50.360;7.582;2023-09-18T06:15:09;19.90;99.90
21678;DHT22;11000;50.360;7.582;2023-09-18T06:17:32;20.00;99.90
21678;DHT22;11000;50.360;7.582;2023-09-18T06:19:53;20.00;99.90
21678;DHT22;11000;50.360;7.582;2023-09-18T06:22:14;20.00;99.90
21678;DHT22;11000;50.360;7.582;2023-09-18T06:24:35;20.00;99.90
21678;DHT22;11000;50.360;7.582;2023-09-18T06:26:56;20.10;99.90
21678;DHT22;11000;50.360;7.582;2023-09-18T06:29:16;20.10;99.90
21678;DHT22;11000;50.360;7.582;2023-09-18T06:31:37;20.10;99.90
21678;DHT22;11000;50.360;7.582;2023-09-18T06:33:57;20.10;99.90
21678;DHT22;11000;50.360;7.582;2023-09-18T06:36:18;20.10;99.90
21678;DHT22;11000;50.360;7.582;2023-09-18T06:38:39;20.10;99.90
21678;DHT22;11000;50.360;7.582;2023-09-18T06:41:00;20.10;99.90
21678;DHT22;11000;50.360;7.582;2023-09-18T06:43:20;20.10;99.90
21678;DHT22;11000;50.360;7.582;2023-09-18T06:45:41;20.20;99.90
21678;DHT22;11000;50.360;7.582;2023-09-18T06:48:01;20.20;99.90
21678;DHT22;11000;50.360;7.582;2023-09-18T06:50:22;20.20;99.90
21678;DHT22;11000;50.360;7.582;2023-09-18T06:52:42;20.30;99.90
21678;DHT22;11000;50.360;7.582;2023-09-18T06:55:03;20.30;99.90
21678;DHT22;11000;50.360;7.582;2023-09-18T06:57:25;20.30;99.90
21678;DHT22;11000;50.360;7.582;2023-09-18T06:59:45;20.40;99.90
21678;DHT22;11000;50.360;7.582;2023-09-18T07:02:07;20.40;99.90
21678;DHT22;11000;50.360;7.582;2023-09-18T07:04:27;20.40;99.90
21678;DHT22;11000;50.360;7.582;2023-09-18T07:06:48;20.50;99.90
21678;DHT22;11000;50.360;7.582;2023-09-18T07:09:08;20.50;99.90
21678;DHT22;11000;50.360;7.582;2023-09-18T07:11:33;20.50;99.90
21678;DHT22;11000;50.360;7.582;2023-09-18T07:13:53;20.50;99.90
21678;DHT22;11000;50.360;7.582;2023-09-18T07:16:14;20.50;99.90
21678;DHT22;11000;50.360;7.582;2023-09-18T07:18:34;20.60;99.90
21678;DHT22;11000;50.360;7.582;2023-09-18T07:20:55;20.60;99.90
21678;DHT22;11000;50.360;7.582;2023-09-18T07:23:15;20.60;99.90
21678;DHT22;11000;50.360;7.582;2023-09-18T07:25:37;20.60;99.90
21678;DHT22;11000;50.360;7.582;2023-09-18T07:28:00;20.60;99.90
21678;DHT22;11000;50.360;7.582;2023-09-18T07:30:21;20.60;99.90
21678;DHT22;11000;50.360;7.582;2023-09-18T07:32:42;20.60;99.90
21678;DHT22;11000;50.360;7.582;2023-09-18T07:35:03;20.60;99.90
21678;DHT22;11000;50.360;7.582;2023-09-18T07:37:27;20.70;99.90
21678;DHT22;11000;50.360;7.582;2023-09-18T07:39:49;20.70;99.90
21678;DHT22;11000;50.360;7.582;2023-09-18T07:42:09;20.70;99.90
21678;DHT22;11000;50.360;7.582;2023-09-18T07:44:29;20.80;99.90
21678;DHT22;11000;50.360;7.582;2023-09-18T07:46:50;20.80;99.90
21678;DHT22;11000;50.360;7.582;2023-09-18T07:49:11;20.90;99.90
21678;DHT22;11000;50.360;7.582;2023-09-18T07:51:31;20.90;99.90
21678;DHT22;11000;50.360;7.582;2023-09-18T07:53:52;20.90;99.90
21678;DHT22;11000;50.360;7.582;2023-09-18T07:56:12;20.90;99.90
21678;DHT22;11000;50.360;7.582;2023-09-18T07:58:34;21.00;99.90
21678;DHT22;11000;50.360;7.582;2023-09-18T08:00:58;21.00;99.90
21678;DHT22;11000;50.360;7.582;2023-09-18T08:03:19;21.00;99.90
21678;DHT22;11000;50.360;7.582;2023-09-18T08:05:39;21.10;99.90
21678;DHT22;11000;50.360;7.582;2023-09-18T08:08:00;21.10;99.90
21678;DHT22;11000;50.360;7.582;2023-09-18T08:10:21;21.10;99.90
21678;DHT22;11000;50.360;7.582;2023-09-18T08:12:42;21.10;99.90
21678;DHT22;11000;50.360;7.582;2023-09-18T08:15:02;21.20;99.90
21678;DHT22;11000;50.360;7.582;2023-09-18T08:17:23;21.20;99.90
21678;DHT22;11000;50.360;7.582;2023-09-18T08:19:44;21.20;99.90
21678;DHT22;11000;50.360;7.582;2023-09-18T08:22:04;21.20;99.90
21678;DHT22;11000;50.360;7.582;2023-09-18T08:24:25;21.20;99.90
21678;DHT22;11000;50.360;7.582;2023-09-18T08:26:46;21.20;99.90
21678;DHT22;11000;50.360;7.582;2023-09-18T08:29:07;21.20;99.90
21678;DHT22;11000;50.360;7.582;2023-09-18T08:31:27;21.10;99.90
21678;DHT22;11000;50.360;7.582;2023-09-18T08:33:48;21.10;99.90
21678;DHT22;11000;50.360;7.582;2023-09-18T08:36:08;21.10;99.90
21678;DHT22;11000;50.360;7.582;2023-09-18T08:38:29;21.10;99.90
21678;DHT22;11000;50.360;7.582;2023-09-18T08:40:49;21.20;99.90
21678;DHT22;11000;50.360;7.582;2023-09-18T08:43:12;21.20;99.90
21678;DHT22;11000;50.360;7.582;2023-09-18T08:45:35;21.20;99.90
21678;DHT22;11000;50.360;7.582;2023-09-18T08:47:58;21.20;99.90
21678;DHT22;11000;50.360;7.582;2023-09-18T08:50:19;21.20;99.90
21678;DHT22;11000;50.360;7.582;2023-09-18T08:52:41;21.20;99.90
21678;DHT22;11000;50.360;7.582;2023-09-18T08:55:04;21.20;99.90
21678;DHT22;11000;50.360;7.582;2023-09-18T08:57:26;21.20;99.90
21678;DHT22;11000;50.360;7.582;2023-09-18T08:59:48;21.20;99.90
21678;DHT22;11000;50.360;7.582;2023-09-18T09:02:10;21.20;99.90
21678;DHT22;11000;50.360;7.582;2023-09-18T09:04:32;21.20;99.90
21678;DHT22;11000;50.360;7.582;2023-09-18T09:06:52;21.20;99.90
21678;DHT22;11000;50.360;7.582;2023-09-18T09:09:13;21.20;99.90
21678;DHT22;11000;50.360;7.582;2023-09-18T09:11:35;21.30;99.90
21678;DHT22;11000;50.360;7.582;2023-09-18T09:14:09;21.30;99.90
21678;DHT22;11000;50.360;7.582;2023-09-18T09:16:38;21.30;99.90
21678;DHT22;11000;50.360;7.582;2023-09-18T09:19:00;21.30;99.90
21678;DHT22;11000;50.360;7.582;2023-09-18T09:21:20;21.30;99.90
21678;DHT22;11000;50.360;7.582;2023-09-18T09:23:49;21.30;99.90
21678;DHT22;11000;50.360;7.582;2023-09-18T09:26:13;21.30;99.90
21678;DHT22;11000;50.360;7.582;2023-09-18T09:28:34;21.30;99.90
21678;DHT22;11000;50.360;7.582;2023-09-18T09:31:03;21.30;99.90
21678;DHT22;11000;50.360;7.582;2023-09-18T09:33:24;21.30;99.90
21678;DHT22;11000;50.360;7.582;2023-09-18T09:35:44;21.40;99.90
21678;DHT22;11000;50.360;7.582;2023-09-18T09:38:10;21.40;99.90
21678;DHT22;11000;50.360;7.582;2023-09-18T09:40:31;21.40;99.90
21678;DHT22;11000;50.360;7.582;2023-09-18T09:42:56;21.40;99.90
21678;DHT22;11000;50.360;7.582;2023-09-18T09:45:23;21.40;99.90
21678;DHT22;11000;50.360;7.582;2023-09-18T09:47:44;21.40;99.90
21678;DHT22;11000;50.360;7.582;2023-09-18T09:50:23;21.40;99.90
21678;DHT22;11000;50.360;7.582;2023-09-18T09:52:47;21.40;99.90
21678;DHT22;11000;50.360;7.582;2023-09-18T09:57:52;21.50;99.90
21678;DHT22;11000;50.360;7.582;2023-09-18T10:00:13;21.50;99.90
21678;DHT22;11000;50.360;7.582;2023-09-18T10:02:46;21.40;99.90
21678;DHT22;11000;50.360;7.582;2023-09-18T10:05:08;21.50;99.90
21678;DHT22;11000;50.360;7.582;2023-09-18T10:07:28;21.50;99.90
21678;DHT22;11000;50.360;7.582;2023-09-18T10:09:49;21.50;99.90
21678;DHT22;11000;50.360;7.582;2023-09-18T10:12:11;21.60;99.90
21678;DHT22;11000;50.360;7.582;2023-09-18T10:14:33;21.60;99.90
21678;DHT22;11000;50.360;7.582;2023-09-18T10:16:59;21.60;99.90
21678;DHT22;11000;50.360;7.582;2023-09-18T10:19:51;21.50;99.90
21678;DHT22;11000;50.360;7.582;2023-09-18T10:22:30;21.50;99.90
21678;DHT22;11000;50.360;7.582;2023-09-18T10:24:59;21.40;99.90
21678;DHT22;11000;50.360;7.582;2023-09-18T10:27:23;21.40;99.90
21678;DHT22;11000;50.360;7.582;2023-09-18T10:29:49;21.40;99.90
21678;DHT22;11000;50.360;7.582;2023-09-18T10:32:12;21.40;99.90
21678;DHT22;11000;50.360;7.582;2023-09-18T10:34:34;21.50;99.90
21678;DHT22;11000;50.360;7.582;2023-09-18T10:36:57;21.50;99.90
21678;DHT22;11000;50.360;7.582;2023-09-18T10:39:23;21.50;99.90
21678;DHT22;11000;50.360;7.582;2023-09-18T10:41:49;21.60;99.90
21678;DHT22;11000;50.360;7.582;2023-09-18T10:44:11;21.60;99.90
21678;DHT22;11000;50.360;7.582;2023-09-18T10:46:32;21.70;99.90
21678;DHT22;11000;50.360;7.582;2023-09-18T10:48:54;21.80;99.90
21678;DHT22;11000;50.360;7.582;2023-09-18T10:51:22;21.90;99.90
21678;DHT22;11000;50.360;7.582;2023-09-18T10:53:43;22.00;99.90
21678;DHT22;11000;50.360;7.582;2023-09-18T10:56:04;22.20;99.90
21678;DHT22;11000;50.360;7.582;2023-09-18T10:58:25;22.20;99.90
21678;DHT22;11000;50.360;7.582;2023-09-18T11:00:47;22.30;99.90
21678;DHT22;11000;50.360;7.582;2023-09-18T11:03:13;22.50;99.90
21678;DHT22;11000;50.360;7.582;2023-09-18T11:05:35;22.50;99.90
21678;DHT22;11000;50.360;7.582;2023-09-18T11:08:26;22.50;99.90
21678;DHT22;11000;50.360;7.582;2023-09-18T11:11:13;22.50;99.90
21678;DHT22;11000;50.360;7.582;2023-09-18T11:13:38;22.50;99.90
21678;DHT22;11000;50.360;7.582;2023-09-18T11:16:13;22.70;99.90
21678;DHT22;11000;50.360;7.582;2023-09-18T11:18:33;22.70;99.90
21678;DHT22;11000;50.360;7.582;2023-09-18T11:21:11;22.70;99.90
21678;DHT22;11000;50.360;7.582;2023-09-18T11:23:36;22.70;99.90
21678;DHT22;11000;50.360;7.582;2023-09-18T11:25:58;22.80;99.90
21678;DHT22;11000;50.360;7.582;2023-09-18T11:28:25;22.80;99.90
21678;DHT22;11000;50.360;7.582;2023-09-18T11:30:54;22.80;99.90
21678;DHT22;11000;50.360;7.582;2023-09-18T11:33:41;22.90;99.90
21678;DHT22;11000;50.360;7.582;2023-09-18T11:36:05;23.00;99.90
21678;DHT22;11000;50.360;7.582;2023-09-18T11:38:26;22.90;99.90
21678;DHT22;11000;50.360;7.582;2023-09-18T11:40:47;23.00;99.90
21678;DHT22;11000;50.360;7.582;2023-09-18T11:43:19;23.30;99.90
21678;DHT22;11000;50.360;7.582;2023-09-18T11:45:44;23.50;99.90
21678;DHT22;11000;50.360;7.582;2023-09-18T11:48:09;23.70;99.90
21678;DHT22;11000;50.360;7.582;2023-09-18T11:50:31;23.90;99.90
21678;DHT22;11000;50.360;7.582;2023-09-18T11:52:52;24.00;99.90
21678;DHT22;11000;50.360;7.582;2023-09-18T11:55:14;24.20;99.90
21678;DHT22;11000;50.360;7.582;2023-09-18T11:57:38;24.10;99.90
21678;DHT22;11000;50.360;7.582;2023-09-18T11:59:58;24.00;99.90
21678;DHT22;11000;50.360;7.582;2023-09-18T12:02:32;23.90;99.90
21678;DHT22;11000;50.360;7.582;2023-09-18T12:04:56;23.90;99.90
21678;DHT22;11000;50.360;7.582;2023-09-18T12:07:17;23.80;99.90
21678;DHT22;11000;50.360;7.582;2023-09-18T12:09:39;23.90;99.90
21678;DHT22;11000;50.360;7.582;2023-09-18T12:12:00;24.00;99.90
21678;DHT22;11000;50.360;7.582;2023-09-18T12:14:24;24.30;99.90
21678;DHT22;11000;50.360;7.582;2023-09-18T12:16:44;24.60;99.90
21678;DHT22;11000;50.360;7.582;2023-09-18T12:19:05;24.60;99.90
21678;DHT22;11000;50.360;7.582;2023-09-18T12:21:27;24.50;99.90
21678;DHT22;11000;50.360;7.582;2023-09-18T12:23:47;24.70;99.90
21678;DHT22;11000;50.360;7.582;2023-09-18T12:26:11;24.60;99.90
21678;DHT22;11000;50.360;7.582;2023-09-18T12:28:35;24.70;99.90
21678;DHT22;11000;50.360;7.582;2023-09-18T12:30:56;24.70;99.90
21678;DHT22;11000;50.360;7.582;2023-09-18T12:33:19;25.10;99.90
21678;DHT22;11000;50.360;7.582;2023-09-18T12:35:40;25.60;99.90
21678;DHT22;11000;50.360;7.582;2023-09-18T12:38:01;25.80;99.90
21678;DHT22;11000;50.360;7.582;2023-09-18T12:40:29;26.00;99.90
21678;DHT22;11000;50.360;7.582;2023-09-18T12:42:50;26.20;99.90
21678;DHT22;11000;50.360;7.582;2023-09-18T12:45:11;26.10;99.90
21678;DHT22;11000;50.360;7.582;2023-09-18T12:47:33;26.50;99.90
21678;DHT22;11000;50.360;7.582;2023-09-18T12:50:02;26.60;99.90
21678;DHT22;11000;50.360;7.582;2023-09-18T12:52:23;26.30;99.90
21678;DHT22;11000;50.360;7.582;2023-09-18T12:54:44;26.60;99.90
21678;DHT22;11000;50.360;7.582;2023-09-18T12:57:15;26.70;99.90
21678;DHT22;11000;50.360;7.582;2023-09-18T12:59:37;26.70;99.90
21678;DHT22;11000;50.360;7.582;2023-09-18T13:01:58;26.80;99.90
21678;DHT22;11000;50.360;7.582;2023-09-18T13:04:18;26.80;99.90
21678;DHT22;11000;50.360;7.582;2023-09-18T13:06:40;26.90;99.90
21678;DHT22;11000;50.360;7.582;2023-09-18T13:09:22;27.00;99.90
21678;DHT22;11000;50.360;7.582;2023-09-18T13:11:56;26.90;99.90
21678;DHT22;11000;50.360;7.582;2023-09-18T13:14:17;26.80;99.90
21678;DHT22;11000;50.360;7.582;2023-09-18T13:16:37;26.70;99.90
21678;DHT22;11000;50.360;7.582;2023-09-18T13:19:04;26.80;99.90
21678;DHT22;11000;50.360;7.582;2023-09-18T13:21:24;26.90;99.90
21678;DHT22;11000;50.360;7.582;2023-09-18T13:23:45;27.20;99.90
21678;DHT22;11000;50.360;7.582;2023-09-18T13:26:06;27.40;99.90
21678;DHT22;11000;50.360;7.582;2023-09-18T13:28:30;27.40;99.90
21678;DHT22;11000;50.360;7.582;2023-09-18T13:30:55;27.20;99.90
21678;DHT22;11000;50.360;7.582;2023-09-18T13:33:16;27.20;99.90
21678;DHT22;11000;50.360;7.582;2023-09-18T13:35:42;27.30;99.90
21678;DHT22;11000;50.360;7.582;2023-09-18T13:38:03;27.30;99.90
21678;DHT22;11000;50.360;7.582;2023-09-18T13:40:26;27.10;99.90
21678;DHT22;11000;50.360;7.582;2023-09-18T13:42:46;27.20;99.90
21678;DHT22;11000;50.360;7.582;2023-09-18T13:45:09;27.20;99.90
21678;DHT22;11000;50.360;7.582;2023-09-18T13:47:31;27.20;99.90
21678;DHT22;11000;50.360;7.582;2023-09-18T13:49:51;27.40;99.90
21678;DHT22;11000;50.360;7.582;2023-09-18T13:52:12;27.30;99.90
21678;DHT22;11000;50.360;7.582;2023-09-18T13:54:32;27.10;99.90
21678;DHT22;11000;50.360;7.582;2023-09-18T13:56:53;26.90;99.90
21678;DHT22;11000;50.360;7.582;2023-09-18T13:59:15;27.00;99.90
21678;DHT22;11000;50.360;7.582;2023-09-18T14:01:36;27.00;99.90
21678;DHT22;11000;50.360;7.582;2023-09-18T14:03:56;27.10;99.90
21678;DHT22;11000;50.360;7.582;2023-09-18T14:06:17;27.30;99.90
21678;DHT22;11000;50.360;7.582;2023-09-18T14:08:37;27.40;99.90
21678;DHT22;11000;50.360;7.582;2023-09-18T14:11:00;27.50;99.90
21678;DHT22;11000;50.360;7.582;2023-09-18T14:13:21;27.40;99.90
21678;DHT22;11000;50.360;7.582;2023-09-18T14:15:41;27.50;99.90
21678;DHT22;11000;50.360;7.582;2023-09-18T14:18:02;27.30;99.90
21678;DHT22;11000;50.360;7.582;2023-09-18T14:20:23;27.40;99.90
21678;DHT22;11000;50.360;7.582;2023-09-18T14:22:44;27.10;99.90
21678;DHT22;11000;50.360;7.582;2023-09-18T14:25:05;27.20;99.90
21678;DHT22;11000;50.360;7.582;2023-09-18T14:27:26;27.30;99.90
21678;DHT22;11000;50.360;7.582;2023-09-18T14:29:46;27.50;99.90
21678;DHT22;11000;50.360;7.582;2023-09-18T14:32:07;27.60;99.90
21678;DHT22;11000;50.360;7.582;2023-09-18T14:34:28;27.50;99.90
21678;DHT22;11000;50.360;7.582;2023-09-18T14:36:50;27.50;99.90
21678;DHT22;11000;50.360;7.582;2023-09-18T14:39:11;27.50;98.50
21678;DHT22;11000;50.360;7.582;2023-09-18T14:41:32;27.50;98.50
21678;DHT22;11000;50.360;7.582;2023-09-18T14:43:53;27.50;99.10
21678;DHT22;11000;50.360;7.582;2023-09-18T14:46:13;27.40;99.10
21678;DHT22;11000;50.360;7.582;2023-09-18T14:48:34;27.50;98.30
21678;DHT22;11000;50.360;7.582;2023-09-18T14:50:55;27.40;98.90
21678;DHT22;11000;50.360;7.582;2023-09-18T14:53:16;27.30;99.00
21678;DHT22;11000;50.360;7.582;2023-09-18T14:55:36;27.30;99.90
21678;DHT22;11000;50.360;7.582;2023-09-18T14:57:57;27.30;99.60
21678;DHT22;11000;50.360;7.582;2023-09-18T15:00:17;27.30;99.10